createdAt,value
2023-02-11T00:02:21.836Z,42.90
2023-02-11T00:04:49.800Z,39.97
2023-02-11T00:07:17.815Z,38.00
2023-02-11T00:09:45.824Z,36.90
2023-02-11T00:12:13.840Z,38.20
2023-02-11T00:14:41.841Z,130.77
2023-02-11T00:17:09.794Z,162.73
2023-02-11T00:19:40.127Z,409.43
2023-02-11T00:22:08.077Z,265.43
2023-02-11T00:24:36.986Z,170.63
2023-02-11T00:27:05.065Z,129.67
2023-02-11T00:29:33.111Z,127.10
2023-02-11T00:32:05.338Z,67.63
2023-02-11T00:34:33.464Z,51.80
2023-02-11T00:37:02.856Z,51.87
2023-02-11T00:39:30.906Z,80.97
2023-02-11T00:41:59.183Z,105.40
2023-02-11T00:44:27.102Z,48.00
2023-02-11T00:46:55.039Z,45.10
2023-02-11T00:49:22.948Z,37.83
2023-02-11T00:51:50.932Z,41.30
2023-02-11T00:54:20.326Z,43.77
2023-02-11T00:56:48.264Z,44.73
2023-02-11T00:59:16.222Z,33.30
2023-02-11T01:01:44.267Z,41.30
2023-02-11T01:04:12.291Z,40.33
2023-02-11T01:06:40.277Z,47.23
2023-02-11T01:09:08.202Z,42.20
2023-02-11T01:11:37.582Z,38.27
2023-02-11T01:14:05.617Z,45.77
2023-02-11T01:16:33.582Z,43.07
2023-02-11T01:19:01.578Z,39.70
2023-02-11T01:21:29.508Z,49.13
2023-02-11T01:23:57.447Z,40.80
2023-02-11T01:26:25.516Z,42.33
2023-02-11T01:28:55.285Z,40.13
2023-02-11T01:31:23.336Z,40.13
2023-02-11T01:33:51.385Z,39.97
2023-02-11T01:36:19.385Z,41.40
2023-02-11T01:38:47.327Z,37.47
2023-02-11T01:41:15.940Z,41.27
2023-02-11T01:43:45.252Z,39.03
2023-02-11T01:46:22.948Z,48.90
2023-02-11T01:48:54.365Z,39.80
2023-02-11T01:51:23.511Z,38.20
2023-02-11T01:54:09.749Z,36.60
2023-02-11T01:57:05.747Z,40.67
2023-02-11T01:59:35.848Z,40.97
2023-02-11T02:02:06.464Z,39.37
2023-02-11T02:04:39.834Z,43.63
2023-02-11T02:07:09.772Z,49.93
2023-02-11T02:09:39.475Z,45.07
2023-02-11T02:12:07.492Z,42.33
2023-02-11T02:14:39.022Z,46.90
2023-02-11T02:17:07.046Z,44.37
2023-02-11T02:19:50.353Z,49.67
2023-02-11T02:22:37.281Z,43.27
2023-02-11T02:25:15.503Z,41.70
2023-02-11T02:27:48.833Z,39.77
2023-02-11T02:30:31.572Z,48.57
2023-02-11T02:33:21.637Z,44.70
2023-02-11T02:35:55.017Z,43.33
2023-02-11T02:38:24.856Z,47.53
2023-02-11T02:40:55.050Z,49.23
2023-02-11T02:43:24.211Z,50.37
2023-02-11T02:45:52.483Z,46.57
2023-02-11T02:48:29.135Z,40.27
2023-02-11T02:51:03.358Z,44.73
2023-02-11T02:53:39.900Z,45.67
2023-02-11T02:56:09.984Z,44.57
2023-02-11T02:58:50.180Z,42.30
2023-02-11T03:01:22.868Z,46.23
2023-02-11T03:03:56.573Z,48.50
2023-02-11T03:06:29.895Z,43.03
2023-02-11T03:09:01.027Z,42.37
2023-02-11T03:11:30.258Z,45.33
2023-02-11T03:13:58.405Z,44.60
2023-02-11T03:16:27.529Z,47.40
2023-02-11T03:19:00.688Z,44.23
2023-02-11T03:21:29.055Z,42.63
2023-02-11T03:23:58.262Z,45.50
2023-02-11T03:26:27.620Z,39.93
2023-02-11T03:28:56.959Z,45.43
2023-02-11T03:31:28.747Z,41.73
2023-02-11T03:34:05.130Z,41.10
2023-02-11T03:36:41.212Z,41.20
2023-02-11T03:39:10.589Z,46.23
2023-02-11T03:41:39.101Z,42.70
2023-02-11T03:44:07.446Z,39.27
2023-02-11T03:46:38.859Z,46.90
2023-02-11T03:49:11.091Z,41.13
2023-02-11T03:51:39.459Z,42.30
2023-02-11T03:54:11.739Z,48.13
2023-02-11T03:56:43.480Z,40.60
2023-02-11T03:59:11.442Z,43.60
2023-02-11T04:01:39.440Z,42.87
2023-02-11T04:04:08.832Z,38.23
2023-02-11T04:06:36.823Z,36.77
2023-02-11T04:09:04.920Z,36.70
2023-02-11T04:11:32.869Z,41.40
2023-02-11T04:14:00.922Z,36.70
2023-02-11T04:16:30.293Z,38.20
2023-02-11T04:18:58.275Z,39.80
2023-02-11T04:21:27.692Z,41.57
2023-02-11T04:23:55.639Z,34.73
2023-02-11T04:26:23.690Z,36.63
2023-02-11T04:28:51.662Z,39.23
2023-02-11T04:31:19.773Z,40.07
2023-02-11T04:33:47.771Z,39.40
2023-02-11T04:36:15.742Z,40.80
2023-02-11T04:38:45.077Z,41.77
2023-02-11T04:41:13.067Z,38.37
2023-02-11T04:43:41.066Z,35.57
2023-02-11T04:46:09.054Z,37.70
2023-02-11T04:48:37.043Z,40.37
2023-02-11T04:51:05.357Z,41.20
2023-02-11T04:53:33.327Z,39.03
2023-02-11T04:56:02.674Z,34.93
2023-02-11T04:58:30.744Z,46.10
2023-02-11T05:01:06.170Z,39.37
2023-02-11T05:03:34.117Z,41.63
2023-02-11T05:06:02.149Z,41.23
2023-02-11T05:08:30.075Z,39.90
2023-02-11T05:10:58.140Z,37.67
2023-02-11T05:13:27.479Z,39.03
2023-02-11T05:15:56.058Z,41.90
2023-02-11T05:18:24.637Z,39.83
2023-02-11T05:20:52.590Z,40.90
2023-02-11T05:23:20.534Z,45.00
2023-02-11T05:25:48.644Z,42.90
2023-02-11T05:28:17.023Z,45.47
2023-02-11T05:30:46.408Z,41.37
2023-02-11T05:33:14.385Z,45.03
2023-02-11T05:35:42.404Z,41.43
2023-02-11T05:38:10.341Z,46.93
2023-02-11T05:40:38.557Z,44.67
2023-02-11T05:43:06.497Z,44.20
2023-02-11T05:45:35.863Z,41.67
2023-02-11T05:48:05.340Z,42.03
2023-02-11T05:50:33.260Z,42.27
2023-02-11T05:53:01.231Z,37.77
2023-02-11T05:55:29.334Z,42.87
2023-02-11T05:57:57.260Z,43.47
2023-02-11T06:00:25.446Z,39.57
2023-02-11T06:02:53.760Z,44.10
2023-02-11T06:05:23.136Z,37.07
2023-02-11T06:07:51.153Z,40.17
2023-02-11T06:10:19.167Z,42.17
2023-02-11T06:12:47.083Z,38.37
2023-02-11T06:15:15.037Z,39.97
2023-02-11T06:17:43.020Z,38.30
2023-02-11T06:20:11.460Z,35.40
2023-02-11T06:22:40.880Z,39.20
2023-02-11T06:25:08.949Z,38.37
2023-02-11T06:27:36.859Z,40.90
2023-02-11T06:30:05.019Z,40.17
2023-02-11T06:32:43.960Z,37.07
2023-02-11T06:35:13.387Z,40.33
2023-02-11T06:37:42.790Z,37.43
2023-02-11T06:40:11.141Z,41.67
2023-02-11T06:42:39.749Z,37.87
2023-02-11T06:45:09.182Z,37.30
2023-02-11T06:47:37.197Z,44.00
2023-02-11T06:50:05.995Z,40.87
2023-02-11T06:52:34.277Z,35.90
2023-02-11T06:55:03.986Z,35.37
2023-02-11T06:57:32.033Z,38.93
2023-02-11T07:00:00.023Z,33.60
2023-02-11T07:02:28.074Z,36.37
2023-02-11T07:04:56.047Z,42.37
2023-02-11T07:07:24.014Z,34.57
2023-02-11T07:09:51.949Z,40.47
2023-02-11T07:12:21.344Z,40.30
2023-02-11T07:14:49.396Z,43.63
2023-02-11T07:17:17.382Z,42.03
2023-02-11T07:19:45.313Z,39.17
2023-02-11T07:22:13.301Z,35.17
2023-02-11T07:24:41.355Z,36.50
2023-02-11T07:27:09.317Z,35.17
2023-02-11T07:29:38.741Z,39.50
2023-02-11T07:32:07.174Z,44.43
2023-02-11T07:34:35.313Z,40.77
2023-02-11T07:37:03.314Z,45.30
2023-02-11T07:39:31.346Z,40.80
2023-02-11T07:42:00.232Z,42.30
2023-02-11T07:44:28.347Z,42.13
2023-02-11T07:46:57.921Z,42.63
2023-02-11T07:49:26.003Z,41.33
2023-02-11T07:51:53.952Z,47.30
2023-02-11T07:54:22.198Z,39.60
2023-02-11T07:56:50.164Z,46.90
2023-02-11T07:59:18.205Z,50.87
2023-02-11T08:01:46.197Z,42.13
2023-02-11T08:04:15.610Z,45.93
2023-02-11T08:06:44.411Z,57.57
2023-02-11T08:09:16.775Z,49.03
2023-02-11T08:11:44.991Z,47.13
2023-02-11T08:14:13.457Z,44.80
2023-02-11T08:16:43.258Z,50.33
2023-02-11T08:19:13.160Z,49.70
2023-02-11T08:21:42.719Z,48.43
2023-02-11T08:24:11.073Z,48.23
2023-02-11T08:26:39.039Z,48.83
2023-02-11T08:29:08.752Z,45.17
2023-02-11T08:31:37.436Z,48.03
2023-02-11T08:34:05.790Z,46.30
2023-02-11T08:36:34.937Z,48.47
2023-02-11T08:39:18.034Z,49.23
2023-02-11T08:41:46.500Z,50.10
2023-02-11T08:44:14.693Z,47.70
2023-02-11T08:46:42.684Z,49.30
2023-02-11T08:49:10.783Z,46.27
2023-02-11T08:51:38.743Z,48.83
2023-02-11T08:54:10.133Z,49.00
2023-02-11T08:56:38.527Z,52.30
2023-02-11T08:59:06.589Z,55.77
2023-02-11T09:01:34.860Z,47.13
2023-02-11T09:04:02.879Z,57.97
2023-02-11T09:06:30.820Z,45.80
2023-02-11T09:08:59.033Z,50.33
2023-02-11T09:11:30.188Z,46.30
2023-02-11T09:13:58.139Z,49.07
2023-02-11T09:16:27.351Z,45.87
2023-02-11T09:18:57.228Z,53.77
2023-02-11T09:21:25.187Z,52.77
2023-02-11T09:23:53.240Z,50.60
2023-02-11T09:26:21.987Z,52.20
2023-02-11T09:28:52.039Z,47.27
2023-02-11T09:31:20.769Z,56.53
2023-02-11T09:33:50.321Z,51.03
2023-02-11T09:36:20.085Z,45.27
2023-02-11T09:38:48.072Z,47.97
2023-02-11T09:41:26.216Z,49.27
2023-02-11T09:43:57.431Z,55.10
2023-02-11T09:46:26.157Z,48.80
2023-02-11T09:48:56.069Z,44.87
2023-02-11T09:51:28.232Z,48.60
2023-02-11T09:54:00.959Z,54.27
2023-02-11T09:56:29.704Z,46.93
2023-02-11T09:58:59.215Z,49.80
2023-02-11T10:01:32.147Z,53.10
2023-02-11T10:04:04.300Z,48.50
2023-02-11T10:06:41.086Z,49.40
2023-02-11T10:09:23.878Z,47.47
2023-02-11T10:11:57.012Z,46.60
2023-02-11T10:14:32.844Z,47.00
2023-02-11T10:17:08.983Z,52.43
2023-02-11T10:19:43.095Z,48.87
2023-02-11T10:22:13.605Z,50.07
2023-02-11T10:24:42.716Z,48.47
2023-02-11T10:27:17.796Z,47.27
2023-02-11T10:29:49.235Z,48.50
2023-02-11T10:32:23.855Z,43.47
2023-02-11T10:34:52.316Z,46.20
2023-02-11T10:37:20.308Z,44.67
2023-02-11T10:39:48.278Z,47.67
2023-02-11T10:42:16.271Z,49.43
2023-02-11T10:44:49.384Z,45.93
2023-02-11T10:47:21.985Z,43.33
2023-02-11T10:49:50.229Z,47.10
2023-02-11T10:52:23.934Z,48.03
2023-02-11T10:54:59.352Z,43.13
2023-02-11T10:57:29.091Z,42.03
2023-02-11T10:59:59.515Z,42.77
2023-02-11T11:02:34.449Z,43.80
2023-02-11T11:05:04.419Z,43.57
2023-02-11T11:07:32.966Z,43.70
2023-02-11T11:10:03.715Z,47.43
2023-02-11T11:12:33.699Z,41.60
2023-02-11T11:15:03.059Z,46.73
2023-02-11T11:17:32.445Z,45.20
2023-02-11T11:20:15.140Z,43.20
2023-02-11T11:22:43.621Z,46.33
2023-02-11T11:25:22.410Z,41.63
2023-02-11T11:27:51.074Z,46.63
2023-02-11T11:30:19.323Z,43.00
2023-02-11T11:32:48.818Z,41.03
2023-02-11T11:35:24.605Z,46.97
2023-02-11T11:37:55.527Z,40.97
2023-02-11T11:40:25.068Z,43.63
2023-02-11T11:43:07.729Z,40.70
2023-02-11T11:45:35.779Z,46.60
2023-02-11T11:48:08.119Z,38.90
2023-02-11T11:50:37.020Z,40.37
2023-02-11T11:53:08.430Z,39.77
2023-02-11T11:55:39.410Z,39.37
2023-02-11T11:58:11.745Z,42.37
2023-02-11T12:00:44.729Z,34.73
2023-02-11T12:03:30.563Z,39.80
2023-02-11T12:06:09.172Z,38.27
2023-02-11T12:08:42.458Z,31.67
2023-02-11T12:11:13.622Z,40.90
2023-02-11T12:13:50.352Z,35.03
2023-02-11T12:16:22.735Z,37.87
2023-02-11T12:19:07.240Z,34.70
2023-02-11T12:21:40.398Z,34.77
2023-02-11T12:24:18.340Z,37.27
2023-02-11T12:26:48.901Z,37.40
2023-02-11T12:29:23.270Z,36.03
2023-02-11T12:31:59.725Z,34.40
2023-02-11T12:34:34.149Z,35.10
2023-02-11T12:37:08.175Z,31.83
2023-02-11T12:39:41.142Z,38.53
2023-02-11T12:42:44.074Z,33.43
2023-02-11T12:45:21.223Z,34.63
2023-02-11T12:47:55.883Z,32.80
2023-02-11T12:50:27.244Z,32.27
2023-02-11T12:53:01.750Z,41.27
2023-02-11T12:55:30.882Z,33.20
2023-02-11T12:57:59.753Z,37.27
2023-02-11T13:00:31.386Z,32.23
2023-02-11T13:03:01.977Z,31.83
2023-02-11T13:05:33.163Z,30.33
2023-02-11T13:08:04.873Z,32.70
2023-02-11T13:10:34.921Z,27.77
2023-02-11T13:13:19.081Z,32.57
2023-02-11T13:15:50.128Z,29.80
2023-02-11T13:18:26.568Z,32.87
2023-02-11T13:20:57.602Z,32.27
2023-02-11T13:23:31.691Z,29.90
2023-02-11T13:26:03.981Z,33.70
2023-02-11T13:28:37.891Z,28.27
2023-02-11T13:31:07.970Z,28.73
2023-02-11T13:33:37.082Z,29.23
2023-02-11T13:36:18.755Z,27.93
2023-02-11T13:38:56.055Z,27.03
2023-02-11T13:41:26.066Z,28.10
2023-02-11T13:44:01.686Z,25.73
2023-02-11T13:46:31.010Z,26.93
2023-02-11T13:48:59.784Z,27.57
2023-02-11T13:51:39.027Z,24.27
2023-02-11T13:54:09.066Z,29.50
2023-02-11T13:56:38.126Z,29.50
2023-02-11T13:59:07.147Z,27.47
2023-02-11T14:01:42.876Z,26.13
2023-02-11T14:04:39.156Z,25.23
2023-02-11T14:07:42.179Z,26.47
2023-02-11T14:10:36.213Z,28.23
2023-02-11T14:13:08.179Z,29.00
2023-02-11T14:15:42.465Z,28.90
2023-02-11T14:18:28.784Z,28.37
2023-02-11T14:21:09.181Z,25.93
2023-02-11T14:23:37.653Z,29.50
2023-02-11T14:26:14.659Z,28.70
2023-02-11T14:28:46.928Z,25.47
2023-02-11T14:31:17.352Z,27.93
2023-02-11T14:33:53.822Z,30.80
2023-02-11T14:36:31.140Z,26.17
2023-02-11T14:39:03.713Z,29.10
2023-02-11T14:41:36.577Z,30.83
2023-02-11T14:44:05.911Z,31.07
2023-02-11T14:46:34.675Z,24.40
2023-02-11T14:49:03.854Z,30.90
2023-02-11T14:51:33.297Z,29.13
2023-02-11T14:54:04.515Z,28.17
2023-02-11T14:56:34.619Z,26.93
2023-02-11T14:59:03.133Z,35.10
2023-02-11T15:01:32.715Z,25.97
2023-02-11T15:04:01.433Z,28.47
2023-02-11T15:06:30.734Z,31.13
2023-02-11T15:09:01.096Z,27.37
2023-02-11T15:11:30.156Z,32.37
2023-02-11T15:14:01.188Z,32.33
2023-02-11T15:16:30.138Z,32.50
2023-02-11T15:18:59.521Z,29.83
2023-02-11T15:21:30.081Z,32.20
2023-02-11T15:23:59.554Z,34.10
2023-02-11T15:26:27.522Z,29.20
2023-02-11T15:28:56.271Z,31.33
2023-02-11T15:31:26.756Z,29.97
2023-02-11T15:33:55.337Z,27.97
2023-02-11T15:36:28.805Z,25.63
2023-02-11T15:39:15.296Z,33.50
2023-02-11T15:41:44.525Z,31.63
2023-02-11T15:44:27.216Z,23.60
2023-02-11T15:46:56.653Z,30.07
2023-02-11T15:49:25.234Z,24.80
2023-02-11T15:51:53.549Z,26.27
2023-02-11T15:54:22.964Z,24.73
2023-02-11T15:56:52.088Z,27.87
2023-02-11T15:59:24.036Z,25.97
2023-02-11T16:01:52.050Z,26.00
2023-02-11T16:04:22.542Z,30.47
2023-02-11T16:06:51.433Z,30.57
2023-02-11T16:09:24.718Z,27.00
2023-02-11T16:11:56.785Z,26.90
2023-02-11T16:14:29.615Z,32.53
2023-02-11T16:16:58.965Z,26.47
2023-02-11T16:19:30.417Z,29.53
2023-02-11T16:21:59.572Z,29.33
2023-02-11T16:24:29.244Z,30.10
2023-02-11T16:26:58.928Z,28.30
2023-02-11T16:29:28.771Z,29.97
2023-02-11T16:32:08.476Z,28.63
2023-02-11T16:34:37.964Z,26.40
2023-02-11T16:37:06.359Z,27.00
2023-02-11T16:39:37.100Z,27.70
2023-02-11T16:42:07.414Z,25.63
2023-02-11T16:44:36.100Z,32.20
2023-02-11T16:47:04.802Z,28.10
2023-02-11T16:49:34.052Z,30.33
2023-02-11T16:52:03.648Z,30.93
2023-02-11T16:54:31.560Z,28.80
2023-02-11T16:56:59.625Z,32.40
2023-02-11T16:59:27.513Z,29.87
2023-02-11T17:01:56.105Z,27.87
2023-02-11T17:04:26.052Z,28.77
2023-02-11T17:06:55.965Z,31.37
2023-02-11T17:09:30.249Z,26.43
2023-02-11T17:12:00.906Z,32.27
2023-02-11T17:14:31.459Z,28.23
2023-02-11T17:16:59.467Z,28.40
2023-02-11T17:19:30.444Z,34.03
2023-02-11T17:21:58.398Z,33.40
2023-02-11T17:24:27.824Z,32.77
2023-02-11T17:26:56.043Z,34.13
2023-02-11T17:29:24.774Z,31.70
2023-02-11T17:31:53.369Z,30.47
2023-02-11T17:34:21.992Z,29.60
2023-02-11T17:36:50.319Z,31.90
2023-02-11T17:39:19.367Z,34.50
2023-02-11T17:41:48.755Z,35.63
2023-02-11T17:44:16.816Z,32.53
2023-02-11T17:46:44.898Z,32.17
2023-02-11T17:49:13.060Z,34.67
2023-02-11T17:51:41.413Z,34.90
2023-02-11T17:54:10.231Z,33.73
2023-02-11T17:56:38.573Z,35.97
2023-02-11T17:59:08.542Z,33.93
2023-02-11T18:01:37.264Z,32.30
2023-02-11T18:04:05.683Z,32.77
2023-02-11T18:06:34.032Z,31.13
2023-02-11T18:09:04.461Z,32.77
2023-02-11T18:11:33.332Z,34.30
2023-02-11T18:14:01.382Z,36.63
2023-02-11T18:16:30.894Z,31.00
2023-02-11T18:18:59.401Z,32.37
2023-02-11T18:21:28.415Z,34.90
2023-02-11T18:23:57.110Z,37.00
2023-02-11T18:26:26.499Z,39.30
2023-02-11T18:28:54.467Z,29.77
2023-02-11T18:31:22.873Z,34.37
2023-02-11T18:33:53.231Z,34.73
2023-02-11T18:36:21.627Z,35.03
2023-02-11T18:38:49.644Z,39.77
2023-02-11T18:41:17.664Z,38.40
2023-02-11T18:43:45.844Z,37.07
2023-02-11T18:46:14.562Z,38.63
2023-02-11T18:48:44.906Z,33.17
2023-02-11T18:51:15.093Z,36.23
2023-02-11T18:53:43.465Z,39.30
2023-02-11T18:56:12.628Z,37.83
2023-02-11T18:58:40.691Z,33.60
2023-02-11T19:01:13.001Z,34.00
2023-02-11T19:03:40.975Z,39.03
2023-02-11T19:06:09.593Z,36.87
2023-02-11T19:08:38.976Z,38.47
2023-02-11T19:11:07.092Z,40.33
2023-02-11T19:13:35.070Z,37.67
2023-02-11T19:16:05.857Z,40.50
2023-02-11T19:18:33.817Z,38.77
2023-02-11T19:21:01.770Z,41.53
2023-02-11T19:23:29.706Z,35.70
2023-02-11T19:25:59.217Z,41.40
2023-02-11T19:28:27.220Z,36.17
2023-02-11T19:30:55.349Z,34.77
2023-02-11T19:33:23.606Z,44.90
2023-02-11T19:35:51.833Z,42.80
2023-02-11T19:38:19.935Z,43.37
2023-02-11T19:40:48.337Z,43.67
2023-02-11T19:43:17.673Z,45.30
2023-02-11T19:45:45.612Z,42.90
2023-02-11T19:48:14.109Z,43.57
2023-02-11T19:50:42.036Z,48.73
2023-02-11T19:53:10.008Z,46.83
2023-02-11T19:55:38.037Z,45.27
2023-02-11T19:58:06.154Z,43.13
2023-02-11T20:00:35.670Z,46.27
2023-02-11T20:03:03.671Z,37.37
2023-02-11T20:05:32.000Z,43.63
2023-02-11T20:08:00.202Z,41.63
2023-02-11T20:10:28.190Z,41.37
2023-02-11T20:12:56.110Z,39.87
2023-02-11T20:15:24.065Z,43.60
2023-02-11T20:17:53.375Z,41.63
2023-02-11T20:20:21.402Z,39.73
2023-02-11T20:22:49.428Z,43.33
2023-02-11T20:25:17.766Z,46.63
2023-02-11T20:27:45.734Z,43.90
2023-02-11T20:30:14.548Z,42.00
2023-02-11T20:32:42.598Z,41.73
2023-02-11T20:35:12.066Z,42.33
2023-02-11T20:37:42.940Z,48.20
2023-02-11T20:40:12.385Z,39.20
2023-02-11T20:42:40.418Z,40.07
2023-02-11T20:45:08.710Z,42.03
2023-02-11T20:47:38.364Z,42.37
2023-02-11T20:50:07.062Z,55.83
2023-02-11T20:52:37.055Z,43.97
2023-02-11T20:55:05.143Z,42.57
2023-02-11T20:57:35.356Z,42.83
2023-02-11T21:00:03.384Z,50.03
2023-02-11T21:02:31.481Z,46.77
2023-02-11T21:04:59.385Z,43.13
2023-02-11T21:07:29.345Z,46.13
2023-02-11T21:09:58.779Z,40.30
2023-02-11T21:12:26.683Z,37.80
2023-02-11T21:14:55.069Z,38.97
2023-02-11T21:17:23.099Z,47.33
2023-02-11T21:19:53.728Z,45.83
2023-02-11T21:22:21.698Z,45.53
2023-02-11T21:24:49.712Z,42.27
2023-02-11T21:27:19.044Z,44.40
2023-02-11T21:29:54.127Z,40.83
2023-02-11T21:32:22.731Z,42.87
2023-02-11T21:34:50.700Z,42.03
2023-02-11T21:37:18.655Z,41.43
2023-02-11T21:39:46.631Z,45.67
2023-02-11T21:42:14.640Z,43.73
2023-02-11T21:44:43.974Z,44.83
2023-02-11T21:47:11.924Z,45.87
2023-02-11T21:49:39.874Z,37.77
2023-02-11T21:52:07.965Z,44.30
2023-02-11T21:54:35.929Z,41.03
2023-02-11T21:57:04.264Z,44.30
2023-02-11T21:59:33.057Z,46.17
2023-02-11T22:02:02.406Z,40.87
2023-02-11T22:04:30.960Z,46.47
2023-02-11T22:06:58.979Z,47.20
2023-02-11T22:09:27.103Z,161.07
2023-02-11T22:11:55.198Z,120.20
2023-02-11T22:14:23.168Z,51.50
2023-02-11T22:16:51.325Z,47.87
2023-02-11T22:19:20.757Z,44.90
2023-02-11T22:21:48.663Z,49.17
2023-02-11T22:24:16.619Z,44.03
2023-02-11T22:26:44.602Z,53.87
2023-02-11T22:29:12.976Z,43.47
2023-02-11T22:31:41.112Z,50.17
2023-02-11T22:34:09.147Z,45.20
2023-02-11T22:36:39.706Z,44.90
2023-02-11T22:39:08.731Z,50.17
2023-02-11T22:41:38.353Z,45.97
2023-02-11T22:44:06.593Z,40.60
2023-02-11T22:46:34.572Z,48.77
2023-02-11T22:49:02.570Z,48.40
2023-02-11T22:51:30.872Z,44.27
2023-02-11T22:54:00.952Z,45.47
2023-02-11T22:56:29.673Z,43.43
2023-02-11T22:58:58.397Z,42.23
2023-02-11T23:01:26.530Z,41.37
2023-02-11T23:03:54.507Z,44.33
2023-02-11T23:06:22.662Z,45.43
2023-02-11T23:08:50.603Z,46.47
2023-02-11T23:11:20.954Z,45.67
2023-02-11T23:13:49.437Z,46.93
2023-02-11T23:16:19.492Z,42.93
2023-02-11T23:18:48.310Z,41.37
2023-02-11T23:21:17.850Z,50.53
2023-02-11T23:23:46.055Z,48.57
2023-02-11T23:26:14.648Z,50.93
2023-02-11T23:28:46.097Z,48.47
2023-02-11T23:31:15.543Z,51.83
2023-02-11T23:33:43.548Z,46.93
2023-02-11T23:36:11.569Z,50.60
2023-02-11T23:38:39.636Z,44.20
2023-02-11T23:41:07.548Z,50.63
2023-02-11T23:43:35.457Z,47.73
2023-02-11T23:46:04.998Z,54.03
2023-02-11T23:48:33.934Z,43.90
2023-02-11T23:51:01.931Z,45.47
2023-02-11T23:53:29.854Z,51.27
2023-02-11T23:55:57.836Z,47.60
2023-02-11T23:58:26.010Z,49.23
